Time;durP1;ratioP1;P1;durP2;ratioP2;P2;SDS_P1;SDS_P2;PMS_P1;PMS_P2;Temp;Humidity;BMP_temperature;BMP_pressure;BME280_temperature;BME280_humidity;BME280_pressure;Samples;Min_cycle;Max_cycle;Signal;HPM_P1;HPM_P2
2023/04/04 00:02:17;;;;;;;3.63;2.00;;;3.00;63.50;;;;;;4954985;28;20054;-62
2023/04/04 00:04:43;;;;;;;3.08;1.95;;;3.00;63.50;;;;;;4955685;28;20122;-62
2023/04/04 00:07:09;;;;;;;3.42;1.80;;;2.90;63.40;;;;;;4956791;28;20066;-61
2023/04/04 00:09:34;;;;;;;2.63;1.95;;;2.90;63.30;;;;;;4957331;28;20561;-62
2023/04/04 00:12:00;;;;;;;4.07;2.00;;;2.90;63.30;;;;;;4957111;28;20066;-62
2023/04/04 00:14:26;;;;;;;4.63;1.95;;;2.90;63.30;;;;;;4956351;28;20062;-61
2023/04/04 00:16:51;;;;;;;3.80;2.00;;;2.90;63.30;;;;;;4942108;28;20057;-62
2023/04/04 00:19:17;;;;;;;2.83;1.95;;;2.90;63.20;;;;;;4953929;28;20408;-62
2023/04/04 00:21:44;;;;;;;3.00;2.03;;;2.80;63.20;;;;;;4957163;28;20071;-62
2023/04/04 00:24:11;;;;;;;2.85;1.98;;;2.80;63.10;;;;;;4955385;28;20039;-61
2023/04/04 00:26:36;;;;;;;4.82;1.73;;;2.80;63.20;;;;;;4953831;28;20332;-62
2023/04/04 00:29:02;;;;;;;2.25;1.90;;;2.80;63.30;;;;;;4951535;28;21514;-62
2023/04/04 00:31:27;;;;;;;3.78;2.20;;;2.80;63.40;;;;;;4953753;28;20039;-61
2023/04/04 00:33:53;;;;;;;4.47;1.98;;;2.70;63.50;;;;;;4953191;28;20497;-60
2023/04/04 00:36:19;;;;;;;4.70;1.90;;;2.70;63.50;;;;;;4955049;28;20039;-62
2023/04/04 00:38:44;;;;;;;3.47;1.98;;;2.70;63.40;;;;;;4953478;28;20039;-62
2023/04/04 00:41:11;;;;;;;3.67;1.80;;;2.70;63.40;;;;;;4953790;28;20035;-62
2023/04/04 00:43:37;;;;;;;3.33;1.77;;;2.60;63.40;;;;;;4953046;28;20030;-62
2023/04/04 00:46:03;;;;;;;2.80;1.75;;;2.60;63.50;;;;;;4952481;28;20050;-63
2023/04/04 00:48:28;;;;;;;3.55;2.00;;;2.50;63.60;;;;;;4954290;28;20042;-63
2023/04/04 00:50:54;;;;;;;3.88;2.05;;;2.50;63.70;;;;;;4957821;28;20031;-62
2023/04/04 00:53:20;;;;;;;2.92;1.60;;;2.50;63.70;;;;;;4956678;28;20043;-61
2023/04/04 00:55:45;;;;;;;3.47;1.90;;;2.50;63.70;;;;;;4956637;28;20035;-62
2023/04/04 00:58:11;;;;;;;3.08;1.90;;;2.50;63.90;;;;;;4957380;28;20038;-63
2023/04/04 01:00:37;;;;;;;3.28;1.58;;;2.40;63.80;;;;;;4959685;28;20118;-61
2023/04/04 01:03:04;;;;;;;2.42;1.73;;;2.40;63.90;;;;;;4957095;28;20035;-62
2023/04/04 01:05:31;;;;;;;2.42;1.70;;;2.40;63.90;;;;;;4957130;28;20036;-62
2023/04/04 01:07:57;;;;;;;4.85;1.90;;;2.40;63.90;;;;;;4954027;28;20031;-63
2023/04/04 01:10:22;;;;;;;4.15;1.95;;;2.40;64.00;;;;;;4957480;28;20503;-61
2023/04/04 01:12:48;;;;;;;2.08;1.80;;;2.30;64.00;;;;;;4953622;28;20039;-63
2023/04/04 01:15:14;;;;;;;2.88;1.95;;;2.30;64.00;;;;;;4955618;28;20040;-63
2023/04/04 01:17:41;;;;;;;2.90;2.08;;;2.30;64.00;;;;;;4953752;28;20798;-63
2023/04/04 01:20:19;;;;;;;4.70;1.92;;;2.30;64.20;;;;;;4953585;28;20118;-63
2023/04/04 01:22:48;;;;;;;3.70;2.03;;;2.30;64.10;;;;;;4955976;28;20046;-63
2023/04/04 01:25:14;;;;;;;2.35;1.90;;;2.20;64.20;;;;;;4954374;28;20074;-63
2023/04/04 01:27:39;;;;;;;2.75;2.15;;;2.20;64.20;;;;;;4952865;28;21772;-63
2023/04/04 01:30:07;;;;;;;4.32;1.95;;;2.20;64.20;;;;;;4954206;28;20455;-63
2023/04/04 01:32:45;;;;;;;5.53;2.40;;;2.20;64.20;;;;;;4954471;28;20043;-62
2023/04/04 01:35:26;;;;;;;5.85;2.05;;;2.20;64.40;;;;;;4952366;28;20133;-63
2023/04/04 01:37:55;;;;;;;5.35;2.10;;;2.10;64.40;;;;;;4955695;28;20534;-62
2023/04/04 01:40:24;;;;;;;2.88;1.98;;;2.10;64.50;;;;;;4953563;28;20039;-63
2023/04/04 01:42:50;;;;;;;3.88;2.15;;;2.00;64.50;;;;;;4952883;28;20039;-63
2023/04/04 01:45:16;;;;;;;2.83;2.03;;;2.00;64.60;;;;;;4952948;28;20062;-63
2023/04/04 01:47:42;;;;;;;6.05;2.17;;;2.00;64.70;;;;;;4951574;28;20507;-63
2023/04/04 01:50:09;;;;;;;3.35;2.15;;;2.00;64.70;;;;;;4953288;28;20060;-62
2023/04/04 01:52:35;;;;;;;4.13;1.92;;;2.00;65.40;;;;;;4952219;28;21061;-63
2023/04/04 01:55:02;;;;;;;4.05;2.28;;;2.00;65.10;;;;;;4954903;28;20427;-62
2023/04/04 01:57:28;;;;;;;3.83;2.25;;;1.90;65.10;;;;;;4953498;28;20124;-63
2023/04/04 01:59:53;;;;;;;3.33;2.10;;;1.90;65.10;;;;;;4952229;28;20736;-63
2023/04/04 02:02:19;;;;;;;4.38;2.33;;;1.90;65.20;;;;;;4952822;28;20186;-62
2023/04/04 02:04:44;;;;;;;4.07;1.83;;;1.90;65.30;;;;;;4954246;28;20546;-62
2023/04/04 02:07:10;;;;;;;3.38;1.85;;;1.90;65.30;;;;;;4951685;28;20410;-63
2023/04/04 02:09:37;;;;;;;3.22;2.17;;;1.90;65.40;;;;;;4954168;28;20043;-62
2023/04/04 02:12:02;;;;;;;3.58;2.22;;;1.90;65.40;;;;;;4955926;28;20043;-62
2023/04/04 02:14:28;;;;;;;3.42;2.22;;;1.80;65.40;;;;;;4953672;28;20039;-62
2023/04/04 02:16:54;;;;;;;4.85;2.05;;;1.80;65.60;;;;;;4956024;28;20465;-62
2023/04/04 02:19:20;;;;;;;5.10;2.38;;;1.80;65.60;;;;;;4955424;28;20038;-63
2023/04/04 02:21:45;;;;;;;3.47;2.30;;;1.80;65.70;;;;;;4958469;28;20744;-63
2023/04/04 02:24:11;;;;;;;2.97;2.10;;;1.80;65.70;;;;;;4958658;28;20387;-62
2023/04/04 02:26:37;;;;;;;4.28;2.28;;;1.80;65.80;;;;;;4956008;28;20040;-62
2023/04/04 02:29:03;;;;;;;2.20;2.00;;;1.70;65.80;;;;;;4957098;28;20035;-62
2023/04/04 02:31:29;;;;;;;3.47;2.10;;;1.70;65.80;;;;;;4959077;28;20046;-62
2023/04/04 02:33:55;;;;;;;4.63;2.05;;;1.70;66.00;;;;;;4957892;28;20748;-62
2023/04/04 02:36:21;;;;;;;6.40;2.22;;;1.70;66.00;;;;;;4954664;28;20042;-63
2023/04/04 02:38:46;;;;;;;5.47;2.17;;;1.70;66.10;;;;;;4958416;28;20122;-62
2023/04/04 02:41:12;;;;;;;4.57;2.40;;;1.70;66.30;;;;;;4956810;28;20058;-63
2023/04/04 02:43:37;;;;;;;4.78;2.00;;;1.60;66.20;;;;;;4956185;28;20033;-63
2023/04/04 02:46:03;;;;;;;3.05;2.15;;;1.60;66.30;;;;;;4954284;28;20042;-63
2023/04/04 02:48:29;;;;;;;4.47;1.98;;;1.60;66.30;;;;;;4954134;28;20463;-61
2023/04/04 02:50:54;;;;;;;4.45;2.22;;;1.60;66.50;;;;;;4956637;28;20043;-62
2023/04/04 02:53:20;;;;;;;3.90;2.33;;;1.60;66.60;;;;;;4955002;28;20043;-63
2023/04/04 02:55:46;;;;;;;4.20;2.50;;;1.50;66.50;;;;;;4957776;28;20049;-62
2023/04/04 02:58:11;;;;;;;3.25;2.45;;;1.50;67.50;;;;;;4960446;28;20039;-62
2023/04/04 03:00:37;;;;;;;6.72;2.58;;;1.50;66.80;;;;;;4960095;28;20031;-62
2023/04/04 03:03:04;;;;;;;4.07;2.60;;;1.50;66.90;;;;;;4959557;28;20040;-62
2023/04/04 03:05:31;;;;;;;4.18;2.63;;;1.40;66.90;;;;;;4959732;28;20034;-62
2023/04/04 03:07:58;;;;;;;3.42;2.33;;;1.40;67.00;;;;;;4955762;28;20027;-62
2023/04/04 03:10:24;;;;;;;5.00;2.58;;;1.40;67.20;;;;;;4956639;28;20555;-62
2023/04/04 03:12:50;;;;;;;4.28;2.40;;;1.40;67.30;;;;;;4953189;28;20039;-62
2023/04/04 03:15:16;;;;;;;3.40;2.60;;;1.40;67.30;;;;;;4957099;28;20038;-63
2023/04/04 03:17:41;;;;;;;3.03;2.50;;;1.30;67.40;;;;;;4955067;28;20574;-62
2023/04/04 03:20:07;;;;;;;4.40;2.60;;;1.30;67.50;;;;;;4955805;28;20129;-63
2023/04/04 03:22:33;;;;;;;6.03;2.70;;;1.30;67.60;;;;;;4955117;28;20125;-62
2023/04/04 03:24:59;;;;;;;3.97;2.72;;;1.30;67.70;;;;;;4956448;28;20122;-63
2023/04/04 03:27:24;;;;;;;5.55;2.40;;;1.20;67.70;;;;;;4953431;28;20091;-63
2023/04/04 03:29:50;;;;;;;3.63;2.55;;;1.20;67.80;;;;;;4958088;28;20041;-62
2023/04/04 03:32:17;;;;;;;4.47;2.53;;;1.20;67.90;;;;;;4955462;28;20782;-62
2023/04/04 03:34:43;;;;;;;4.55;2.40;;;1.20;68.00;;;;;;4954801;28;20035;-63
2023/04/04 03:37:09;;;;;;;5.78;2.60;;;1.20;68.00;;;;;;4954305;28;20120;-63
2023/04/04 03:39:35;;;;;;;4.55;2.70;;;1.20;69.00;;;;;;4954373;28;20035;-62
2023/04/04 03:42:00;;;;;;;4.63;2.70;;;1.20;68.20;;;;;;4957925;28;20175;-63
2023/04/04 03:44:26;;;;;;;4.07;2.75;;;1.20;68.20;;;;;;4954457;28;20392;-61
2023/04/04 03:46:52;;;;;;;4.15;2.42;;;1.20;68.30;;;;;;4938211;28;20134;-62
2023/04/04 03:49:18;;;;;;;4.18;2.35;;;1.20;68.40;;;;;;4955189;28;20039;-63
2023/04/04 03:51:44;;;;;;;3.83;2.47;;;1.10;68.40;;;;;;4956306;28;20050;-62
2023/04/04 03:54:09;;;;;;;6.03;2.70;;;1.10;68.50;;;;;;4955474;28;20031;-62
2023/04/04 03:56:35;;;;;;;4.78;2.70;;;1.10;68.40;;;;;;4956351;28;20042;-62
2023/04/04 03:59:01;;;;;;;4.68;3.05;;;1.10;68.60;;;;;;4957139;28;20047;-62
2023/04/04 04:01:26;;;;;;;5.13;2.72;;;1.10;68.60;;;;;;4943701;28;20074;-62
2023/04/04 04:03:52;;;;;;;4.05;2.58;;;1.10;69.60;;;;;;4956396;28;20035;-62
2023/04/04 04:06:17;;;;;;;4.35;2.55;;;1.10;68.70;;;;;;4955263;28;20046;-62
2023/04/04 04:08:43;;;;;;;5.30;2.95;;;1.10;68.70;;;;;;4955091;28;20058;-63
2023/04/04 04:11:09;;;;;;;7.60;2.90;;;1.10;68.90;;;;;;4956839;28;20046;-63
2023/04/04 04:13:37;;;;;;;4.88;2.90;;;1.00;68.90;;;;;;4954910;28;20113;-62
2023/04/04 04:16:04;;;;;;;4.13;2.40;;;1.00;68.90;;;;;;4952994;28;20502;-62
2023/04/04 04:18:30;;;;;;;3.50;2.70;;;1.00;69.00;;;;;;4952872;28;20109;-63
2023/04/04 04:21:01;;;;;;;6.75;2.92;;;1.00;69.10;;;;;;4953435;28;20142;-63
2023/04/04 04:23:27;;;;;;;6.28;2.60;;;1.00;69.00;;;;;;4955017;28;20062;-61
2023/04/04 04:25:53;;;;;;;6.03;2.67;;;1.00;69.10;;;;;;4954468;28;20049;-63
2023/04/04 04:28:18;;;;;;;4.38;2.80;;;0.90;69.10;;;;;;4955854;28;20035;-63
2023/04/04 04:30:45;;;;;;;4.60;2.70;;;0.90;69.10;;;;;;4952856;28;20337;-62
2023/04/04 04:33:11;;;;;;;3.63;2.67;;;0.90;69.30;;;;;;4955467;28;20073;-63
2023/04/04 04:35:38;;;;;;;3.97;2.53;;;0.90;69.20;;;;;;4956285;28;20054;-62
2023/04/04 04:38:03;;;;;;;4.63;2.50;;;0.90;69.30;;;;;;4956655;28;20054;-62
2023/04/04 04:40:29;;;;;;;3.95;2.65;;;0.90;69.40;;;;;;4957586;28;20039;-60
2023/04/04 04:42:55;;;;;;;4.32;2.70;;;0.90;69.40;;;;;;4957598;28;20049;-63
2023/04/04 04:45:20;;;;;;;5.80;2.92;;;0.80;69.30;;;;;;4956648;28;20057;-64
2023/04/04 04:47:46;;;;;;;5.20;3.08;;;0.80;69.30;;;;;;4957742;28;20067;-62
2023/04/04 04:50:11;;;;;;;5.10;3.10;;;0.80;69.40;;;;;;4956052;28;20045;-62
2023/04/04 04:52:37;;;;;;;3.17;2.45;;;0.80;69.40;;;;;;4956227;28;20118;-62
2023/04/04 04:55:04;;;;;;;7.47;2.72;;;0.80;69.50;;;;;;4956410;28;20153;-63
2023/04/04 04:57:29;;;;;;;4.53;2.90;;;0.80;69.60;;;;;;4956879;28;20098;-62
2023/04/04 04:59:55;;;;;;;6.43;2.67;;;0.80;69.50;;;;;;4958820;28;20454;-62
2023/04/04 05:02:21;;;;;;;4.28;2.50;;;0.80;69.60;;;;;;4958700;28;20065;-62
2023/04/04 05:04:46;;;;;;;4.18;2.70;;;0.80;69.60;;;;;;4956333;28;20118;-62
2023/04/04 05:07:12;;;;;;;6.30;2.83;;;0.80;69.60;;;;;;4957574;28;20058;-62
2023/04/04 05:09:38;;;;;;;4.60;2.45;;;0.80;69.60;;;;;;4957513;28;20487;-63
2023/04/04 05:12:04;;;;;;;4.00;2.63;;;0.80;69.60;;;;;;4958326;28;20617;-63
2023/04/04 05:14:29;;;;;;;4.78;2.63;;;0.80;69.60;;;;;;4956493;28;20065;-60
2023/04/04 05:16:55;;;;;;;5.05;2.50;;;0.80;69.60;;;;;;4958867;28;20050;-62
2023/04/04 05:19:20;;;;;;;3.72;2.78;;;0.70;69.70;;;;;;4958674;28;20031;-62
2023/04/04 05:21:46;;;;;;;8.38;2.70;;;0.70;69.80;;;;;;4959834;28;20566;-62
2023/04/04 05:24:12;;;;;;;4.28;2.70;;;0.70;69.90;;;;;;4958361;28;20155;-63
2023/04/04 05:26:38;;;;;;;4.63;2.80;;;0.70;70.00;;;;;;4958005;28;20155;-62
2023/04/04 05:29:03;;;;;;;5.60;3.15;;;0.70;70.80;;;;;;4959196;28;20175;-62
2023/04/04 05:31:29;;;;;;;4.60;2.80;;;0.70;70.00;;;;;;4957803;28;20042;-62
2023/04/04 05:33:55;;;;;;;5.50;2.75;;;0.70;70.00;;;;;;4959416;28;20031;-63
2023/04/04 05:36:21;;;;;;;4.25;2.65;;;0.70;70.10;;;;;;4957694;28;20077;-62
2023/04/04 05:38:46;;;;;;;5.85;2.47;;;0.70;70.20;;;;;;4957988;28;20472;-63
2023/04/04 05:41:12;;;;;;;3.58;2.70;;;0.80;70.30;;;;;;4958544;28;20027;-62
2023/04/04 05:43:38;;;;;;;4.57;2.58;;;0.70;70.30;;;;;;4958390;28;20085;-63
2023/04/04 05:46:03;;;;;;;5.85;2.63;;;0.80;70.50;;;;;;4958307;28;20043;-62
2023/04/04 05:48:29;;;;;;;4.13;2.85;;;0.70;70.40;;;;;;4959869;28;20498;-62
2023/04/04 05:50:55;;;;;;;5.35;2.97;;;0.80;70.40;;;;;;4962501;28;20058;-62
2023/04/04 05:53:21;;;;;;;5.55;3.13;;;0.80;70.50;;;;;;4962929;28;20050;-62
2023/04/04 05:55:50;;;;;;;4.85;2.78;;;0.80;70.50;;;;;;4962325;28;20340;-62
2023/04/04 05:58:16;;;;;;;4.05;2.78;;;0.80;70.50;;;;;;4962379;28;20039;-62
2023/04/04 06:00:42;;;;;;;4.78;2.80;;;0.80;70.50;;;;;;4961814;28;20035;-62
2023/04/04 06:03:08;;;;;;;3.28;2.78;;;0.80;70.30;;;;;;4962190;28;20050;-61
2023/04/04 06:05:34;;;;;;;4.70;2.80;;;0.90;70.40;;;;;;4962131;28;20796;-63
2023/04/04 06:07:59;;;;;;;7.43;2.55;;;0.90;70.50;;;;;;4962312;28;20105;-63
2023/04/04 06:10:25;;;;;;;5.03;2.85;;;0.90;70.40;;;;;;4961352;28;20478;-62
2023/04/04 06:12:50;;;;;;;7.25;2.60;;;0.90;70.40;;;;;;4963004;28;20039;-62
2023/04/04 06:15:16;;;;;;;6.60;2.53;;;0.90;70.50;;;;;;4962041;28;20114;-62
2023/04/04 06:17:42;;;;;;;5.68;2.50;;;1.00;70.50;;;;;;4961964;28;20062;-63
2023/04/04 06:20:08;;;;;;;4.88;2.55;;;1.00;70.50;;;;;;4944940;28;20071;-62
2023/04/04 06:22:33;;;;;;;4.82;2.60;;;1.10;70.50;;;;;;4961113;28;20043;-61
2023/04/04 06:24:59;;;;;;;5.90;2.30;;;1.10;70.40;;;;;;4962465;28;20046;-60
2023/04/04 06:27:25;;;;;;;4.95;2.50;;;1.10;70.40;;;;;;4961399;28;20031;-61
2023/04/04 06:29:50;;;;;;;5.72;2.60;;;1.20;70.30;;;;;;4962050;28;20097;-61
2023/04/04 06:32:16;;;;;;;6.65;2.60;;;1.20;70.20;;;;;;4962081;28;20031;-62
2023/04/04 06:34:42;;;;;;;8.63;3.05;;;1.30;70.00;;;;;;4961463;28;20039;-61
2023/04/04 06:37:07;;;;;;;9.20;2.63;;;1.30;69.90;;;;;;4961511;28;20070;-62
2023/04/04 06:39:33;;;;;;;4.13;2.38;;;1.40;69.90;;;;;;4961295;28;20121;-63
2023/04/04 06:42:00;;;;;;;3.78;2.40;;;1.50;69.80;;;;;;4963241;28;20246;-61
2023/04/04 06:44:26;;;;;;;5.80;2.97;;;1.50;69.70;;;;;;4961163;28;20043;-62
2023/04/04 06:46:51;;;;;;;5.57;2.70;;;1.50;69.50;;;;;;4960697;28;20034;-62
2023/04/04 06:49:17;;;;;;;4.75;2.72;;;1.60;69.60;;;;;;4961311;28;20062;-62
2023/04/04 06:51:43;;;;;;;7.03;2.75;;;1.60;69.30;;;;;;4960753;28;20038;-61
2023/04/04 06:54:09;;;;;;;4.03;2.40;;;1.70;69.20;;;;;;4961630;28;20569;-61
2023/04/04 06:56:35;;;;;;;6.82;2.70;;;1.70;69.00;;;;;;4959807;28;20054;-62
2023/04/04 06:59:00;;;;;;;6.75;2.83;;;1.80;69.00;;;;;;4961149;28;20028;-61
2023/04/04 07:01:26;;;;;;;6.45;2.60;;;1.80;69.00;;;;;;4960380;28;20046;-60
2023/04/04 07:03:53;;;;;;;3.60;2.40;;;1.80;68.80;;;;;;4961055;28;20507;-62
2023/04/04 07:06:20;;;;;;;5.43;2.90;;;1.90;68.70;;;;;;4960899;28;20043;-63
2023/04/04 07:08:46;;;;;;;6.32;2.50;;;1.90;68.70;;;;;;4960801;28;20039;-62
2023/04/04 07:11:12;;;;;;;3.78;2.30;;;2.00;68.70;;;;;;4949165;28;20450;-63
2023/04/04 07:13:38;;;;;;;7.60;2.40;;;2.00;68.60;;;;;;4961106;28;20039;-63
2023/04/04 07:16:03;;;;;;;6.00;3.00;;;2.10;68.50;;;;;;4961207;28;20712;-62
2023/04/04 07:18:29;;;;;;;4.90;2.60;;;2.10;68.40;;;;;;4960384;28;20039;-62
2023/04/04 07:20:55;;;;;;;4.78;2.90;;;2.20;68.40;;;;;;4960790;28;20406;-63
2023/04/04 07:23:20;;;;;;;5.13;2.80;;;2.20;68.30;;;;;;4961309;28;20032;-63
2023/04/04 07:25:46;;;;;;;4.60;2.97;;;2.30;68.40;;;;;;4960476;28;20399;-63
2023/04/04 07:28:12;;;;;;;5.50;2.88;;;2.40;68.20;;;;;;4960788;28;20178;-63
2023/04/04 07:30:37;;;;;;;4.25;2.72;;;2.40;68.00;;;;;;4960393;28;20384;-62
2023/04/04 07:33:03;;;;;;;5.55;2.83;;;2.50;67.90;;;;;;4960045;28;20031;-62
2023/04/04 07:35:29;;;;;;;6.18;2.70;;;2.50;67.90;;;;;;4960713;28;20601;-62
2023/04/04 07:37:54;;;;;;;5.25;2.80;;;2.60;67.70;;;;;;4960270;28;20039;-62
2023/04/04 07:40:20;;;;;;;5.95;3.00;;;2.60;67.50;;;;;;4962015;28;20035;-63
2023/04/04 07:42:50;;;;;;;6.85;2.95;;;2.70;67.40;;;;;;4960416;28;20042;-63
2023/04/04 07:45:16;;;;;;;4.53;2.80;;;2.70;67.30;;;;;;4960120;28;20043;-62
2023/04/04 07:47:45;;;;;;;6.45;2.97;;;2.80;67.20;;;;;;4960195;28;20043;-61
2023/04/04 07:50:12;;;;;;;4.80;2.78;;;2.90;67.00;;;;;;4959932;28;20506;-62
2023/04/04 07:52:38;;;;;;;3.95;2.67;;;2.90;66.90;;;;;;4959498;28;20043;-62
2023/04/04 07:55:06;;;;;;;4.00;2.88;;;3.00;66.90;;;;;;4960071;28;20045;-62
2023/04/04 07:57:41;;;;;;;5.80;2.67;;;3.00;66.80;;;;;;4959711;28;20039;-63
2023/04/04 08:00:10;;;;;;;5.40;2.67;;;3.00;66.60;;;;;;4960517;28;20117;-62
2023/04/04 08:02:37;;;;;;;5.13;2.95;;;3.10;66.50;;;;;;4955882;28;20049;-61
2023/04/04 08:05:03;;;;;;;5.53;2.50;;;3.20;66.40;;;;;;4960924;28;20043;-63
2023/04/04 08:07:28;;;;;;;5.75;2.65;;;3.30;66.30;;;;;;4960287;28;20038;-62
2023/04/04 08:09:54;;;;;;;7.05;2.88;;;3.30;66.30;;;;;;4949966;28;20035;-62
2023/04/04 08:12:20;;;;;;;5.68;2.70;;;3.40;66.20;;;;;;4960642;28;20066;-62
2023/04/04 08:14:46;;;;;;;4.75;2.80;;;3.50;65.90;;;;;;4960168;28;20113;-62
2023/04/04 08:17:11;;;;;;;5.78;3.30;;;3.50;65.70;;;;;;4960760;28;20038;-61
2023/04/04 08:19:37;;;;;;;3.78;2.58;;;3.60;65.50;;;;;;4960323;28;20384;-63
2023/04/04 08:22:04;;;;;;;5.00;2.80;;;3.70;65.30;;;;;;4960760;28;20042;-62
2023/04/04 08:24:29;;;;;;;3.80;2.80;;;3.70;65.20;;;;;;4960199;28;20043;-62
2023/04/04 08:26:55;;;;;;;4.63;2.70;;;3.80;65.20;;;;;;4959833;28;20042;-62
2023/04/04 08:29:21;;;;;;;4.60;2.63;;;3.90;64.90;;;;;;4960758;28;20035;-62
2023/04/04 08:31:46;;;;;;;2.97;2.50;;;3.90;64.40;;;;;;4960845;28;20098;-62
2023/04/04 08:34:12;;;;;;;5.15;2.65;;;4.00;63.90;;;;;;4960056;28;20042;-62
2023/04/04 08:36:38;;;;;;;4.35;2.58;;;4.00;63.80;;;;;;4959953;28;20188;-62
2023/04/04 08:39:03;;;;;;;4.63;2.60;;;4.10;63.60;;;;;;4961244;28;20027;-63
2023/04/04 08:41:31;;;;;;;3.97;2.70;;;4.10;63.30;;;;;;4960787;28;20066;-62
2023/04/04 08:44:00;;;;;;;5.93;2.45;;;4.20;63.20;;;;;;4960408;28;20163;-63
2023/04/04 08:46:26;;;;;;;4.20;2.78;;;4.20;63.30;;;;;;4957948;28;20049;-63
2023/04/04 08:48:55;;;;;;;3.97;2.63;;;4.40;63.50;;;;;;4958626;28;20042;-62
2023/04/04 08:51:25;;;;;;;6.53;2.88;;;4.40;63.00;;;;;;4960827;28;20035;-62
2023/04/04 08:53:51;;;;;;;3.97;2.65;;;4.50;62.50;;;;;;4961153;28;20031;-62
2023/04/04 08:56:17;;;;;;;4.20;2.63;;;4.60;62.20;;;;;;4959823;28;20063;-62
2023/04/04 08:58:42;;;;;;;5.68;2.60;;;4.70;61.70;;;;;;4959564;28;20023;-62
2023/04/04 09:01:09;;;;;;;4.35;2.60;;;4.70;61.30;;;;;;4960395;28;20035;-62
2023/04/04 09:03:36;;;;;;;3.90;2.55;;;4.80;61.10;;;;;;4959255;28;20129;-62
2023/04/04 09:06:03;;;;;;;3.38;2.60;;;4.90;60.80;;;;;;4959623;28;20043;-62
2023/04/04 09:08:29;;;;;;;2.97;2.42;;;4.90;60.50;;;;;;4958829;28;20054;-64
2023/04/04 09:10:55;;;;;;;7.35;2.55;;;4.90;60.60;;;;;;4958562;28;20124;-63
2023/04/04 09:13:21;;;;;;;5.68;2.80;;;5.00;60.40;;;;;;4959848;28;20035;-62
2023/04/04 09:15:49;;;;;;;3.20;2.45;;;5.00;60.50;;;;;;4959903;28;20042;-63
2023/04/04 09:18:16;;;;;;;4.50;2.80;;;5.10;59.90;;;;;;4959500;28;20049;-63
2023/04/04 09:20:44;;;;;;;3.38;2.30;;;5.10;59.80;;;;;;4958812;28;20049;-62
2023/04/04 09:23:18;;;;;;;5.28;2.63;;;5.20;59.70;;;;;;4960044;28;20031;-62
2023/04/04 09:25:52;;;;;;;3.92;2.65;;;5.20;59.60;;;;;;4958850;28;20039;-63
2023/04/04 09:28:19;;;;;;;3.38;2.53;;;5.20;59.50;;;;;;4957577;28;20043;-62
2023/04/04 09:30:48;;;;;;;4.10;2.30;;;5.30;59.90;;;;;;4958634;28;20565;-61
2023/04/04 09:33:15;;;;;;;3.38;2.70;;;5.40;59.50;;;;;;4958520;28;20035;-62
2023/04/04 09:35:51;;;;;;;3.67;2.80;;;5.40;59.70;;;;;;4958887;28;20031;-62
2023/04/04 09:38:17;;;;;;;6.40;2.50;;;5.50;59.20;;;;;;4959852;28;20057;-62
2023/04/04 09:40:44;;;;;;;4.78;2.65;;;5.60;59.10;;;;;;4958684;28;20043;-63
2023/04/04 09:43:11;;;;;;;5.50;2.65;;;5.60;59.00;;;;;;4940603;28;20081;-62
2023/04/04 09:45:40;;;;;;;3.42;2.60;;;5.60;59.00;;;;;;4958343;28;20034;-63
2023/04/04 09:48:08;;;;;;;3.88;2.55;;;5.70;58.90;;;;;;4959077;28;20079;-62
2023/04/04 09:50:36;;;;;;;4.50;2.47;;;5.70;59.00;;;;;;4958151;28;20035;-63
2023/04/04 09:53:02;;;;;;;3.20;2.40;;;5.80;59.10;;;;;;4958905;28;20043;-62
2023/04/04 09:55:32;;;;;;;3.83;2.38;;;5.90;59.10;;;;;;4959638;28;20047;-62
2023/04/04 09:57:57;;;;;;;4.13;2.60;;;5.90;58.70;;;;;;4959756;28;20051;-63
2023/04/04 10:00:29;;;;;;;3.50;2.50;;;5.90;58.80;;;;;;4958703;28;20042;-63
2023/04/04 10:02:57;;;;;;;2.65;2.45;;;6.00;58.40;;;;;;4959128;28;20034;-62
2023/04/04 10:05:23;;;;;;;5.38;2.40;;;6.10;58.60;;;;;;4959405;28;20063;-63
2023/04/04 10:07:48;;;;;;;3.47;2.35;;;6.10;58.50;;;;;;4957934;28;20040;-62
2023/04/04 10:10:14;;;;;;;3.05;2.53;;;6.20;58.10;;;;;;4958489;28;20106;-61
2023/04/04 10:12:44;;;;;;;3.35;2.30;;;6.30;58.40;;;;;;4958698;28;20059;-61
2023/04/04 10:15:10;;;;;;;5.30;2.42;;;6.30;58.00;;;;;;4959355;28;20446;-63
2023/04/04 10:17:37;;;;;;;2.85;2.47;;;6.40;57.90;;;;;;4958399;28;20411;-63
2023/04/04 10:20:05;;;;;;;3.85;2.50;;;6.40;57.30;;;;;;4943452;28;20041;-62
2023/04/04 10:22:36;;;;;;;4.53;2.67;;;6.50;58.00;;;;;;4957949;28;20070;-62
2023/04/04 10:25:05;;;;;;;5.28;2.58;;;6.50;57.00;;;;;;4959348;28;20093;-62
2023/04/04 10:27:31;;;;;;;4.38;2.85;;;6.50;57.20;;;;;;4958915;28;20525;-62
2023/04/04 10:29:58;;;;;;;4.57;2.85;;;6.60;57.40;;;;;;4960192;28;20074;-61
2023/04/04 10:32:42;;;;;;;2.72;2.42;;;6.60;57.30;;;;;;4958159;28;20043;-63
2023/04/04 10:35:10;;;;;;;5.35;2.70;;;6.60;56.70;;;;;;4959184;28;20034;-62
2023/04/04 10:37:44;;;;;;;4.82;2.60;;;6.70;58.00;;;;;;4961195;28;20031;-61
2023/04/04 10:40:16;;;;;;;4.78;2.60;;;6.70;57.00;;;;;;4962560;28;20046;-62
2023/04/04 10:42:45;;;;;;;2.60;2.40;;;6.80;57.00;;;;;;4961855;28;20659;-62
2023/04/04 10:45:13;;;;;;;3.88;2.83;;;6.80;56.90;;;;;;4962719;28;20580;-62
2023/04/04 10:47:40;;;;;;;3.35;2.50;;;6.80;56.70;;;;;;4962435;28;20049;-61
2023/04/04 10:50:09;;;;;;;5.30;2.63;;;6.80;56.80;;;;;;4962211;28;20065;-62
2023/04/04 10:52:36;;;;;;;4.70;2.80;;;6.90;56.80;;;;;;4961821;28;20137;-62
2023/04/04 10:55:05;;;;;;;5.28;2.65;;;6.90;56.70;;;;;;4962293;28;20402;-62
2023/04/04 10:57:41;;;;;;;5.90;2.67;;;7.00;56.00;;;;;;4962042;28;20030;-63
2023/04/04 11:00:11;;;;;;;3.95;2.60;;;7.00;56.00;;;;;;4962928;28;20038;-62
2023/04/04 11:02:56;;;;;;;3.40;2.75;;;7.00;56.20;;;;;;4961995;28;20046;-62
2023/04/04 11:05:22;;;;;;;5.65;3.00;;;7.10;55.20;;;;;;4962253;28;20067;-62
2023/04/04 11:08:12;;;;;;;5.10;2.60;;;7.10;55.30;;;;;;4962001;28;20114;-62
2023/04/04 11:10:43;;;;;;;3.70;2.55;;;7.10;55.30;;;;;;4954200;28;20045;-62
2023/04/04 11:13:17;;;;;;;3.67;2.80;;;7.10;55.70;;;;;;4960736;28;20094;-63
2023/04/04 11:15:59;;;;;;;3.25;2.72;;;7.10;55.30;;;;;;4961562;28;20035;-63
2023/04/04 11:18:44;;;;;;;4.15;2.92;;;7.10;55.20;;;;;;4961928;28;20138;-63
2023/04/04 11:21:14;;;;;;;3.40;2.70;;;7.10;55.00;;;;;;4962290;28;20612;-62
2023/04/04 11:23:48;;;;;;;4.82;2.58;;;7.10;54.90;;;;;;4961386;28;20600;-63
2023/04/04 11:26:26;;;;;;;3.13;2.42;;;7.10;54.60;;;;;;4961432;28;20102;-63
2023/04/04 11:28:56;;;;;;;3.83;2.72;;;7.10;54.90;;;;;;4961344;28;20039;-62
2023/04/04 11:31:24;;;;;;;2.97;2.40;;;7.10;55.10;;;;;;4960006;28;20122;-63
2023/04/04 11:33:54;;;;;;;3.65;2.70;;;7.10;55.00;;;;;;4961329;28;20038;-63
2023/04/04 11:36:46;;;;;;;3.50;2.80;;;7.10;55.30;;;;;;4961613;28;20200;-63
2023/04/04 11:39:25;;;;;;;2.90;2.42;;;7.20;55.00;;;;;;4955098;28;20031;-63
2023/04/04 11:42:12;;;;;;;2.90;2.60;;;7.20;55.00;;;;;;4962463;28;20419;-63
2023/04/04 11:45:01;;;;;;;3.42;2.58;;;7.30;54.90;;;;;;4961141;28;20122;-63
2023/04/04 11:47:28;;;;;;;5.00;2.92;;;7.40;55.30;;;;;;4960941;28;20039;-62
2023/04/04 11:49:54;;;;;;;4.82;2.90;;;7.50;55.20;;;;;;4961673;28;20071;-62
2023/04/04 11:52:22;;;;;;;3.33;2.80;;;7.50;54.50;;;;;;4961587;28;20565;-61
2023/04/04 11:54:48;;;;;;;3.88;2.47;;;7.50;54.90;;;;;;4961749;28;20039;-62
2023/04/04 11:57:16;;;;;;;3.97;2.83;;;7.60;54.20;;;;;;4959023;28;20440;-61
2023/04/04 11:59:44;;;;;;;5.57;2.70;;;7.60;54.20;;;;;;4961409;28;20049;-61
2023/04/04 12:02:12;;;;;;;3.35;2.90;;;7.70;54.00;;;;;;4960953;28;20038;-63
2023/04/04 12:04:44;;;;;;;5.57;3.03;;;7.70;53.60;;;;;;4960398;28;20039;-62
2023/04/04 12:07:10;;;;;;;4.68;2.72;;;7.70;53.70;;;;;;4960434;28;20042;-62
2023/04/04 12:09:36;;;;;;;3.97;2.83;;;7.70;54.20;;;;;;4960126;28;20097;-62
2023/04/04 12:12:02;;;;;;;4.07;2.83;;;7.70;54.10;;;;;;4961472;28;20113;-61
2023/04/04 12:14:28;;;;;;;3.55;2.65;;;7.70;54.30;;;;;;4960329;28;20326;-62
2023/04/04 12:16:58;;;;;;;6.80;3.00;;;7.80;54.40;;;;;;4960776;28;20062;-62
2023/04/04 12:19:24;;;;;;;4.45;2.72;;;7.80;53.30;;;;;;4957846;28;20069;-63
2023/04/04 12:21:51;;;;;;;5.80;2.65;;;7.80;53.80;;;;;;4957479;28;20036;-63
2023/04/04 12:24:17;;;;;;;3.50;2.95;;;7.80;54.10;;;;;;4958679;28;20046;-63
2023/04/04 12:26:47;;;;;;;3.00;2.75;;;7.80;54.10;;;;;;4959152;28;20023;-62
2023/04/04 12:29:15;;;;;;;3.33;2.75;;;7.90;54.30;;;;;;4961122;28;20523;-62
2023/04/04 12:31:44;;;;;;;3.58;2.95;;;7.90;54.30;;;;;;4960270;28;20032;-62
2023/04/04 12:34:27;;;;;;;4.68;2.53;;;7.90;53.20;;;;;;4961040;28;20031;-62
2023/04/04 12:36:54;;;;;;;3.58;2.63;;;7.90;52.80;;;;;;4960067;28;20047;-63
2023/04/04 12:39:24;;;;;;;3.70;2.72;;;7.90;53.60;;;;;;4961268;28;20542;-62
2023/04/04 12:41:56;;;;;;;5.82;2.70;;;7.90;53.30;;;;;;4960175;28;20039;-62
2023/04/04 12:44:30;;;;;;;5.28;3.22;;;7.90;53.10;;;;;;4960653;28;20039;-62
2023/04/04 12:47:04;;;;;;;3.47;3.10;;;7.90;52.50;;;;;;4960412;28;20395;-62
2023/04/04 12:49:38;;;;;;;3.13;2.83;;;7.90;53.30;;;;;;4959825;28;20404;-61
2023/04/04 12:52:06;;;;;;;4.50;2.88;;;8.00;53.30;;;;;;4960646;28;20042;-62
2023/04/04 12:54:38;;;;;;;4.88;2.92;;;8.00;53.30;;;;;;4960311;28;20081;-63
2023/04/04 12:57:06;;;;;;;3.95;2.90;;;8.00;53.50;;;;;;4959102;28;20418;-61
2023/04/04 12:59:34;;;;;;;3.60;3.13;;;8.00;53.30;;;;;;4959889;28;20125;-63